createdAt,value
2024-04-16T00:00:17.695Z,609.00
2024-04-16T00:01:17.759Z,602.00
2024-04-16T00:02:17.724Z,605.00
2024-04-16T00:03:17.809Z,601.00
2024-04-16T00:04:17.832Z,604.00
2024-04-16T00:05:17.841Z,603.00
2024-04-16T00:06:17.772Z,605.00
2024-04-16T00:07:17.824Z,603.00
2024-04-16T00:08:17.790Z,605.00
2024-04-16T00:09:17.865Z,603.00
2024-04-16T00:10:17.902Z,604.00
2024-04-16T00:11:17.858Z,600.00
2024-04-16T00:12:17.858Z,604.00
2024-04-16T00:13:17.898Z,602.00
2024-04-16T00:14:17.902Z,604.00
2024-04-16T00:15:17.884Z,600.00
2024-04-16T00:16:17.932Z,602.00
2024-04-16T00:17:17.944Z,604.00
2024-04-16T00:18:17.930Z,602.00
2024-04-16T00:19:17.956Z,601.00
2024-04-16T00:20:17.945Z,603.00
2024-04-16T00:21:17.966Z,604.00
2024-04-16T00:22:17.955Z,603.00
2024-04-16T00:23:17.940Z,604.00
2024-04-16T00:24:17.974Z,605.00
2024-04-16T00:25:18.040Z,603.00
2024-04-16T00:26:17.991Z,605.00
2024-04-16T00:27:18.002Z,604.00
2024-04-16T00:28:18.075Z,608.00
2024-04-16T00:29:18.033Z,605.00
2024-04-16T00:30:18.047Z,604.00
2024-04-16T00:31:18.092Z,603.00
2024-04-16T00:32:18.746Z,603.00
2024-04-16T00:33:18.206Z,601.00
2024-04-16T00:34:18.156Z,600.00
2024-04-16T00:35:18.131Z,600.00
2024-04-16T00:36:18.160Z,600.00
2024-04-16T00:37:18.199Z,601.00
2024-04-16T00:38:18.174Z,604.00
2024-04-16T00:39:18.263Z,602.00
2024-04-16T00:40:18.257Z,607.00
2024-04-16T00:41:18.195Z,604.00
2024-04-16T00:42:18.210Z,601.00
2024-04-16T00:43:18.251Z,606.00
2024-04-16T00:44:18.244Z,606.00
2024-04-16T00:45:18.239Z,609.00
2024-04-16T00:46:18.262Z,611.00
2024-04-16T00:47:18.343Z,610.00
2024-04-16T00:48:18.295Z,607.00
2024-04-16T00:49:18.331Z,610.00
2024-04-16T00:50:18.296Z,607.00
2024-04-16T00:51:18.291Z,606.00
2024-04-16T00:52:18.402Z,608.00
2024-04-16T00:53:18.347Z,605.00
2024-04-16T00:54:18.347Z,609.00
2024-04-16T00:55:18.395Z,607.00
2024-04-16T00:56:18.356Z,605.00
2024-04-16T00:57:18.445Z,605.00
2024-04-16T00:58:18.421Z,602.00
2024-04-16T00:59:18.424Z,603.00
2024-04-16T01:00:18.406Z,603.00
2024-04-16T01:01:18.481Z,600.00
2024-04-16T01:02:18.459Z,603.00
2024-04-16T01:03:18.512Z,604.00
2024-04-16T01:04:18.536Z,603.00
2024-04-16T01:05:18.488Z,602.00
2024-04-16T01:06:18.550Z,602.00
2024-04-16T01:07:18.546Z,602.00
2024-04-16T01:08:18.512Z,600.00
2024-04-16T01:09:18.553Z,605.00
2024-04-16T01:10:18.556Z,603.00
2024-04-16T01:11:18.544Z,606.00
2024-04-16T01:12:18.557Z,605.00
2024-04-16T01:13:18.584Z,606.00
2024-04-16T01:14:18.584Z,604.00
2024-04-16T01:15:18.598Z,604.00
2024-04-16T01:16:18.645Z,603.00
2024-04-16T01:17:18.670Z,604.00
2024-04-16T01:18:18.814Z,602.00
2024-04-16T01:19:18.713Z,600.00
2024-04-16T01:20:18.690Z,600.00
2024-04-16T01:21:18.680Z,600.00
2024-04-16T01:22:18.709Z,607.00
2024-04-16T01:23:18.713Z,605.00
2024-04-16T01:24:18.739Z,608.00
2024-04-16T01:25:18.816Z,607.00
2024-04-16T01:26:18.762Z,607.00
2024-04-16T01:27:18.788Z,612.00
2024-04-16T01:28:18.827Z,610.00
2024-04-16T01:29:18.825Z,609.00
2024-04-16T01:30:18.849Z,607.00
2024-04-16T01:31:18.867Z,609.00
2024-04-16T01:32:18.928Z,609.00
2024-04-16T01:33:18.861Z,610.00
2024-04-16T01:34:18.924Z,602.00
2024-04-16T01:35:18.905Z,600.00
2024-04-16T01:36:18.921Z,600.00
2024-04-16T01:37:18.944Z,600.00
2024-04-16T01:38:18.935Z,600.00
2024-04-16T01:39:18.979Z,600.00
2024-04-16T01:40:18.996Z,600.00
2024-04-16T01:41:18.957Z,600.00
2024-04-16T01:42:18.975Z,602.00
2024-04-16T01:43:19.002Z,602.00
2024-04-16T01:44:19.018Z,600.00
2024-04-16T01:45:19.035Z,601.00
2024-04-16T01:46:19.029Z,602.00
2024-04-16T01:47:19.115Z,600.00
2024-04-16T01:48:19.155Z,600.00
2024-04-16T01:49:19.147Z,601.00
2024-04-16T01:50:19.075Z,600.00
2024-04-16T01:51:19.081Z,600.00
2024-04-16T01:52:19.112Z,600.00
2024-04-16T01:53:19.122Z,600.00
2024-04-16T01:54:19.121Z,600.00
2024-04-16T01:55:19.166Z,600.00
2024-04-16T01:56:19.173Z,600.00
2024-04-16T01:57:19.184Z,600.00
2024-04-16T01:58:19.268Z,600.00
2024-04-16T01:59:19.217Z,603.00
2024-04-16T02:00:19.281Z,600.00
2024-04-16T02:01:19.295Z,601.00
2024-04-16T02:02:19.301Z,600.00
2024-04-16T02:03:19.325Z,600.00
2024-04-16T02:04:19.426Z,605.00
2024-04-16T02:05:19.366Z,602.00
2024-04-16T02:06:19.381Z,605.00
2024-04-16T02:07:19.412Z,603.00
2024-04-16T02:08:19.396Z,600.00
2024-04-16T02:09:19.423Z,608.00
2024-04-16T02:10:19.489Z,609.00
2024-04-16T02:11:19.445Z,601.00
2024-04-16T02:12:19.474Z,601.00
2024-04-16T02:13:19.529Z,604.00
2024-04-16T02:14:19.567Z,601.00
2024-04-16T02:15:19.562Z,600.00
2024-04-16T02:16:19.655Z,601.00
2024-04-16T02:17:19.648Z,599.00
2024-04-16T02:18:19.778Z,604.00
2024-04-16T02:19:19.691Z,603.00
2024-04-16T02:20:19.636Z,600.00
2024-04-16T02:21:19.673Z,607.00
2024-04-16T02:22:19.716Z,601.00
2024-04-16T02:23:19.702Z,608.00
2024-04-16T02:24:19.731Z,600.00
2024-04-16T02:25:19.788Z,606.00
2024-04-16T02:26:19.747Z,600.00
2024-04-16T02:27:19.793Z,604.00
2024-04-16T02:28:19.810Z,600.00
2024-04-16T02:29:19.835Z,605.00
2024-04-16T02:30:19.856Z,603.00
2024-04-16T02:31:19.942Z,600.00
2024-04-16T02:32:20.017Z,606.00
2024-04-16T02:33:19.911Z,602.00
2024-04-16T02:34:20.003Z,603.00
2024-04-16T02:35:19.971Z,600.00
2024-04-16T02:36:20.004Z,603.00
2024-04-16T02:37:20.046Z,601.00
2024-04-16T02:38:20.069Z,600.00
2024-04-16T02:39:20.073Z,600.00
2024-04-16T02:40:20.152Z,600.00
2024-04-16T02:41:20.142Z,602.00
2024-04-16T02:42:20.152Z,603.00
2024-04-16T02:43:20.222Z,600.00
2024-04-16T02:44:20.219Z,606.00
2024-04-16T02:45:20.219Z,605.00
2024-04-16T02:46:20.276Z,602.00
2024-04-16T02:47:20.276Z,606.00
2024-04-16T02:48:20.332Z,602.00
2024-04-16T02:49:20.416Z,606.00
2024-04-16T02:50:20.359Z,605.00
2024-04-16T02:51:20.355Z,606.00
2024-04-16T02:52:20.434Z,605.00
2024-04-16T02:53:20.419Z,602.00
2024-04-16T02:54:20.441Z,600.00
2024-04-16T02:55:20.526Z,605.00
2024-04-16T02:56:20.509Z,607.00
2024-04-16T02:57:20.522Z,605.00
2024-04-16T02:58:20.637Z,610.00
2024-04-16T02:59:20.583Z,606.00
2024-04-16T03:00:20.598Z,600.00
2024-04-16T03:01:20.675Z,605.00
2024-04-16T03:02:20.657Z,601.00
2024-04-16T03:03:20.675Z,605.00
2024-04-16T03:04:20.807Z,605.00
2024-04-16T03:05:20.743Z,605.00
2024-04-16T03:06:20.778Z,605.00
2024-04-16T03:07:20.809Z,603.00
2024-04-16T03:08:20.836Z,608.00
2024-04-16T03:09:20.818Z,613.00
2024-04-16T03:10:20.870Z,612.00
2024-04-16T03:11:20.905Z,618.00
2024-04-16T03:12:20.879Z,616.00
2024-04-16T03:13:20.980Z,608.00
2024-04-16T03:14:20.944Z,611.00
2024-04-16T03:15:21.016Z,611.00
2024-04-16T03:16:21.030Z,603.00
2024-04-16T03:17:21.133Z,609.00
2024-04-16T03:18:21.092Z,611.00
2024-04-16T03:19:21.079Z,614.00
2024-04-16T03:20:21.072Z,615.00
2024-04-16T03:21:24.202Z,613.00
2024-04-16T03:22:21.143Z,613.00
2024-04-16T03:23:21.101Z,614.00
2024-04-16T03:24:21.098Z,616.00
2024-04-16T03:25:21.230Z,615.00
2024-04-16T03:26:21.101Z,620.00
2024-04-16T03:27:21.118Z,615.00
2024-04-16T03:28:21.135Z,612.00
2024-04-16T03:29:21.163Z,615.00
2024-04-16T03:30:21.124Z,617.00
2024-04-16T03:31:21.128Z,612.00
2024-04-16T03:32:21.187Z,608.00
2024-04-16T03:33:21.152Z,612.00
2024-04-16T03:34:21.190Z,607.00
2024-04-16T03:35:21.123Z,610.00
2024-04-16T03:36:21.120Z,610.00
2024-04-16T03:37:21.204Z,612.00
2024-04-16T03:38:21.127Z,607.00
2024-04-16T03:39:21.137Z,606.00
2024-04-16T03:40:21.146Z,604.00
2024-04-16T03:41:21.121Z,605.00
2024-04-16T03:42:21.133Z,608.00
2024-04-16T03:43:21.144Z,606.00
2024-04-16T03:44:21.145Z,604.00
2024-04-16T03:45:21.157Z,605.00
2024-04-16T03:46:21.127Z,607.00
2024-04-16T03:47:21.154Z,609.00
2024-04-16T03:48:21.182Z,615.00
2024-04-16T03:49:21.160Z,612.00
2024-04-16T03:50:21.146Z,607.00
2024-04-16T03:51:21.121Z,608.00
2024-04-16T03:52:21.198Z,606.00
2024-04-16T03:53:21.156Z,601.00
2024-04-16T03:54:21.161Z,602.00
2024-04-16T03:55:21.190Z,602.00
2024-04-16T03:56:21.140Z,605.00
2024-04-16T03:57:21.128Z,606.00
2024-04-16T03:58:21.187Z,607.00
2024-04-16T03:59:21.141Z,607.00
2024-04-16T04:00:21.180Z,601.00
2024-04-16T04:01:21.259Z,600.00
2024-04-16T04:02:21.327Z,606.00
2024-04-16T04:03:21.263Z,607.00
2024-04-16T04:04:21.452Z,614.00
2024-04-16T04:05:21.312Z,609.00
2024-04-16T04:06:21.365Z,613.00
2024-04-16T04:07:21.417Z,614.00
2024-04-16T04:08:21.399Z,605.00
2024-04-16T04:09:21.435Z,606.00
2024-04-16T04:10:21.488Z,611.00
2024-04-16T04:11:21.536Z,610.00
2024-04-16T04:12:21.510Z,612.00
2024-04-16T04:13:21.559Z,612.00
2024-04-16T04:14:21.583Z,609.00
2024-04-16T04:15:21.615Z,612.00
2024-04-16T04:16:21.616Z,602.00
2024-04-16T04:17:21.689Z,602.00
2024-04-16T04:18:28.873Z,600.00
2024-04-16T04:19:28.844Z,600.00
2024-04-16T04:20:28.822Z,600.00
2024-04-16T04:21:28.822Z,600.00
2024-04-16T04:22:28.847Z,600.00
2024-04-16T04:23:28.811Z,605.00
2024-04-16T04:24:34.570Z,601.00
2024-04-16T04:25:29.879Z,601.00
2024-04-16T04:26:28.834Z,602.00
2024-04-16T04:27:28.824Z,603.00
2024-04-16T04:28:28.819Z,599.00
2024-04-16T04:29:28.835Z,592.00
2024-04-16T04:30:28.837Z,602.00
2024-04-16T04:31:36.148Z,600.00
2024-04-16T04:32:39.276Z,600.00
2024-04-16T04:33:36.009Z,600.00
2024-04-16T04:34:36.013Z,600.00
2024-04-16T04:35:36.052Z,600.00
2024-04-16T04:36:35.997Z,600.00
2024-04-16T04:37:36.027Z,600.00
2024-04-16T04:38:35.993Z,601.00
2024-04-16T04:39:36.020Z,602.00
2024-04-16T04:40:36.096Z,602.00
2024-04-16T04:41:35.987Z,606.00
2024-04-16T04:42:35.990Z,604.00
2024-04-16T04:43:36.124Z,600.00
2024-04-16T04:44:36.006Z,604.00
2024-04-16T04:45:36.035Z,600.00
2024-04-16T04:46:36.168Z,604.00
2024-04-16T04:47:36.083Z,606.00
2024-04-16T04:48:36.074Z,610.00
2024-04-16T04:49:36.070Z,610.00
2024-04-16T04:50:35.998Z,607.00
2024-04-16T04:51:36.019Z,613.00
2024-04-16T04:52:36.116Z,621.00
2024-04-16T04:53:35.998Z,620.00
2024-04-16T04:54:36.020Z,623.00
2024-04-16T04:55:36.091Z,627.00
2024-04-16T04:56:36.010Z,624.00
2024-04-16T04:57:36.006Z,619.00
2024-04-16T04:58:36.136Z,626.00
2024-04-16T04:59:36.010Z,629.00
2024-04-16T05:00:36.041Z,623.00
2024-04-16T05:01:36.106Z,631.00
2024-04-16T05:02:36.027Z,632.00
2024-04-16T05:03:36.066Z,629.00
2024-04-16T05:04:36.059Z,631.00
2024-04-16T05:05:36.027Z,636.00
2024-04-16T05:06:36.017Z,635.00
2024-04-16T05:07:36.082Z,634.00
2024-04-16T05:08:36.026Z,638.00
2024-04-16T05:09:36.026Z,637.00
2024-04-16T05:10:36.045Z,639.00
2024-04-16T05:11:36.050Z,635.00
2024-04-16T05:12:36.021Z,643.00
2024-04-16T05:13:36.087Z,640.00
2024-04-16T05:14:36.028Z,643.00
2024-04-16T05:15:36.041Z,640.00
2024-04-16T05:16:36.103Z,646.00
2024-04-16T05:17:36.133Z,647.00
2024-04-16T05:18:36.255Z,650.00
2024-04-16T05:19:36.112Z,648.00
2024-04-16T05:20:36.069Z,647.00
2024-04-16T05:21:36.037Z,650.00
2024-04-16T05:22:36.096Z,650.00
2024-04-16T05:23:36.055Z,650.00
2024-04-16T05:24:36.050Z,648.00
2024-04-16T05:25:36.132Z,654.00
2024-04-16T05:26:36.062Z,650.00
2024-04-16T05:27:36.083Z,644.00
2024-04-16T05:28:36.222Z,643.00
2024-04-16T05:29:36.141Z,647.00
2024-04-16T05:30:36.223Z,649.00
2024-04-16T05:31:36.206Z,642.00
2024-04-16T05:32:36.358Z,651.00
2024-04-16T05:33:36.255Z,643.00
2024-04-16T05:34:36.414Z,629.00
2024-04-16T05:35:36.447Z,606.00
2024-04-16T05:36:36.359Z,603.00
2024-04-16T05:37:36.509Z,601.00
2024-04-16T05:38:36.474Z,601.00
2024-04-16T05:39:36.477Z,598.00
2024-04-16T05:40:36.568Z,601.00
2024-04-16T05:41:36.526Z,600.00
2024-04-16T05:42:36.626Z,600.00
2024-04-16T05:43:36.619Z,603.00
2024-04-16T05:44:36.617Z,600.00
2024-04-16T05:45:37.138Z,600.00
2024-04-16T05:46:38.455Z,602.00
2024-04-16T05:47:36.807Z,600.00
2024-04-16T05:48:36.694Z,603.00
2024-04-16T05:49:37.671Z,602.00
2024-04-16T05:50:37.150Z,603.00
2024-04-16T05:51:36.671Z,601.00
2024-04-16T05:52:36.802Z,603.00
2024-04-16T05:53:36.696Z,600.00
2024-04-16T05:54:36.775Z,605.00
2024-04-16T05:55:36.824Z,601.00
2024-04-16T05:56:36.685Z,602.00
2024-04-16T05:57:36.676Z,602.00
2024-04-16T05:58:36.838Z,603.00
2024-04-16T05:59:36.753Z,601.00
2024-04-16T06:00:37.198Z,602.00
2024-04-16T06:01:36.722Z,604.00
2024-04-16T06:02:36.849Z,601.00
2024-04-16T06:03:36.747Z,599.00
2024-04-16T06:04:36.733Z,601.00
2024-04-16T06:05:36.701Z,601.00
2024-04-16T06:06:36.746Z,601.00
2024-04-16T06:07:36.772Z,600.00
2024-04-16T06:08:36.714Z,605.00
2024-04-16T06:09:36.689Z,600.00
2024-04-16T06:10:36.925Z,601.00
2024-04-16T06:11:36.724Z,600.00
2024-04-16T06:12:36.735Z,601.00
2024-04-16T06:13:40.125Z,601.00
2024-04-16T06:14:36.693Z,601.00
2024-04-16T06:15:36.767Z,602.00
2024-04-16T06:16:36.831Z,601.00
2024-04-16T06:17:36.707Z,601.00
2024-04-16T06:18:36.715Z,600.00
2024-04-16T06:19:36.799Z,601.00
2024-04-16T06:20:37.146Z,601.00
2024-04-16T06:21:36.715Z,605.00
2024-04-16T06:22:36.773Z,604.00
2024-04-16T06:23:36.743Z,603.00
2024-04-16T06:24:36.710Z,605.00
2024-04-16T06:25:36.755Z,604.00
2024-04-16T06:26:36.706Z,605.00
2024-04-16T06:27:36.739Z,603.00
2024-04-16T06:28:36.812Z,604.00
2024-04-16T06:29:36.764Z,602.00
2024-04-16T06:30:36.743Z,602.00
2024-04-16T06:31:36.812Z,601.00
2024-04-16T06:32:37.046Z,600.00
2024-04-16T06:33:36.993Z,600.00
2024-04-16T06:34:37.101Z,602.00
2024-04-16T06:35:37.071Z,603.00
2024-04-16T06:36:37.767Z,601.00
2024-04-16T06:37:37.363Z,612.00
2024-04-16T06:38:37.309Z,618.00
2024-04-16T06:39:37.447Z,635.00
2024-04-16T06:40:37.731Z,645.00
2024-04-16T06:41:37.418Z,655.00
2024-04-16T06:42:37.458Z,666.00
2024-04-16T06:43:37.626Z,690.00
2024-04-16T06:44:37.552Z,722.00
2024-04-16T06:45:37.637Z,768.00
2024-04-16T06:46:37.718Z,796.00
2024-04-16T06:47:37.645Z,840.00
2024-04-16T06:48:37.720Z,883.00
2024-04-16T06:49:37.827Z,909.00
2024-04-16T06:50:37.735Z,934.00
2024-04-16T06:51:37.680Z,976.00
2024-04-16T06:52:37.728Z,992.00
2024-04-16T06:53:37.680Z,1018.00
2024-04-16T06:54:37.768Z,1033.00
2024-04-16T06:55:37.797Z,1053.00
2024-04-16T06:56:37.774Z,1080.00
2024-04-16T06:57:37.815Z,1094.00
2024-04-16T06:58:37.904Z,1122.00
2024-04-16T06:59:37.768Z,1158.00
2024-04-16T07:00:37.861Z,1186.00
2024-04-16T07:01:37.847Z,1197.00
2024-04-16T07:02:37.863Z,1213.00
2024-04-16T07:03:37.810Z,1234.00
2024-04-16T07:04:37.921Z,1251.00
2024-04-16T07:05:37.817Z,1252.00
2024-04-16T07:06:37.844Z,1265.00
2024-04-16T07:07:37.910Z,1285.00
2024-04-16T07:08:37.919Z,1358.00
2024-04-16T07:09:37.907Z,1397.00
2024-04-16T07:10:38.340Z,1386.00
2024-04-16T07:11:37.955Z,1373.00
2024-04-16T07:12:37.972Z,1374.00
2024-04-16T07:13:38.126Z,1380.00
2024-04-16T07:14:38.103Z,1383.00
2024-04-16T07:15:38.200Z,1384.00
2024-04-16T07:16:38.252Z,1394.00
2024-04-16T07:17:38.456Z,1398.00
2024-04-16T07:18:38.409Z,1415.00
2024-04-16T07:19:38.526Z,1422.00
2024-04-16T07:20:40.188Z,1445.00
2024-04-16T07:21:38.571Z,1463.00
2024-04-16T07:22:38.744Z,1480.00
2024-04-16T07:23:38.729Z,1488.00
2024-04-16T07:24:38.762Z,1491.00
2024-04-16T07:25:38.873Z,1496.00
2024-04-16T07:26:38.945Z,1514.00
2024-04-16T07:27:38.953Z,1512.00
2024-04-16T07:28:39.094Z,1509.00
2024-04-16T07:29:39.165Z,1537.00
2024-04-16T07:30:39.153Z,1559.00
2024-04-16T07:31:45.105Z,1566.00
2024-04-16T07:32:40.525Z,1569.00
2024-04-16T07:33:39.336Z,1580.00
2024-04-16T07:34:39.274Z,1610.00
2024-04-16T07:35:39.233Z,1659.00
2024-04-16T07:36:39.232Z,1725.00
2024-04-16T07:37:39.333Z,1740.00
2024-04-16T07:38:39.231Z,1745.00
2024-04-16T07:39:39.321Z,1753.00
2024-04-16T07:40:39.757Z,1763.00
2024-04-16T07:41:39.365Z,1755.00
2024-04-16T07:42:39.462Z,1753.00
2024-04-16T07:43:39.555Z,1757.00
2024-04-16T07:44:40.194Z,1768.00
2024-04-16T07:45:39.611Z,1774.00
2024-04-16T07:46:39.682Z,1775.00
2024-04-16T07:47:39.933Z,1788.00
2024-04-16T07:48:39.708Z,1786.00
2024-04-16T07:49:39.797Z,1794.00
2024-04-16T07:50:39.713Z,1792.00
2024-04-16T07:51:39.699Z,1790.00
2024-04-16T07:52:39.766Z,1783.00
2024-04-16T07:53:39.790Z,1791.00
2024-04-16T07:54:39.715Z,1782.00
2024-04-16T07:55:39.825Z,1791.00
2024-04-16T07:56:40.728Z,1791.00
2024-04-16T07:57:39.747Z,1792.00
2024-04-16T07:58:39.858Z,1792.00
2024-04-16T07:59:39.747Z,1786.00
2024-04-16T08:00:40.235Z,1796.00
2024-04-16T08:01:39.823Z,1791.00
2024-04-16T08:02:39.788Z,1784.00
2024-04-16T08:03:39.771Z,1787.00
2024-04-16T08:04:39.933Z,1777.00
2024-04-16T08:05:39.745Z,1784.00
2024-04-16T08:06:39.757Z,1778.00
2024-04-16T08:07:39.879Z,1776.00
2024-04-16T08:08:39.770Z,1761.00
2024-04-16T08:09:39.740Z,1765.00
2024-04-16T08:10:39.938Z,1760.00
2024-04-16T08:11:39.814Z,1756.00
2024-04-16T08:12:39.764Z,1758.00
2024-04-16T08:13:39.874Z,1753.00
2024-04-16T08:14:41.084Z,1740.00
2024-04-16T08:15:39.754Z,1741.00
2024-04-16T08:16:39.911Z,1736.00
2024-04-16T08:17:39.921Z,1728.00
2024-04-16T08:18:39.777Z,1718.00
2024-04-16T08:19:39.816Z,1717.00
2024-04-16T08:20:39.860Z,1700.00
2024-04-16T08:21:39.786Z,1678.00
2024-04-16T08:22:39.828Z,1653.00
2024-04-16T08:23:39.805Z,1640.00
2024-04-16T08:24:39.825Z,1645.00
2024-04-16T08:25:40.050Z,1640.00
2024-04-16T08:26:39.844Z,1645.00
2024-04-16T08:27:39.912Z,1632.00
2024-04-16T08:28:39.950Z,1635.00
2024-04-16T08:29:39.867Z,1627.00
2024-04-16T08:30:39.887Z,1629.00
2024-04-16T08:31:39.961Z,1625.00
2024-04-16T08:32:39.943Z,1626.00
2024-04-16T08:33:39.982Z,1630.00
2024-04-16T08:34:39.996Z,1631.00
2024-04-16T08:35:39.935Z,1638.00
2024-04-16T08:36:39.953Z,1639.00
2024-04-16T08:37:40.035Z,1637.00
2024-04-16T08:38:40.764Z,1640.00
2024-04-16T08:39:40.012Z,1648.00
2024-04-16T08:40:40.348Z,1628.00
2024-04-16T08:41:39.978Z,1614.00
2024-04-16T08:42:39.995Z,1594.00
2024-04-16T08:43:40.241Z,1585.00
2024-04-16T08:44:40.053Z,1584.00
2024-04-16T08:45:40.200Z,1571.00
2024-04-16T08:46:40.173Z,1566.00
2024-04-16T08:47:40.155Z,1569.00
2024-04-16T08:48:40.073Z,1558.00
2024-04-16T08:49:42.821Z,1574.00
2024-04-16T08:50:40.198Z,1596.00
2024-04-16T08:51:40.073Z,1583.00
2024-04-16T08:52:40.196Z,1578.00
2024-04-16T08:53:40.095Z,1583.00
2024-04-16T08:54:40.115Z,1576.00
2024-04-16T08:55:40.173Z,1574.00
2024-04-16T08:56:40.115Z,1567.00
2024-04-16T08:57:40.081Z,1574.00
2024-04-16T08:58:40.201Z,1570.00
2024-04-16T08:59:40.116Z,1572.00
2024-04-16T09:00:40.247Z,1573.00
2024-04-16T09:01:40.151Z,1567.00
2024-04-16T09:02:40.133Z,1570.00
2024-04-16T09:03:40.097Z,1564.00
2024-04-16T09:04:40.309Z,1553.00
2024-04-16T09:05:40.150Z,1569.00
2024-04-16T09:06:40.086Z,1558.00
2024-04-16T09:07:40.120Z,1545.00
2024-04-16T09:08:40.232Z,1547.00
2024-04-16T09:09:40.109Z,1540.00
2024-04-16T09:10:40.291Z,1533.00
2024-04-16T09:11:41.136Z,1525.00
2024-04-16T09:12:40.092Z,1530.00
2024-04-16T09:13:40.199Z,1525.00
2024-04-16T09:14:40.137Z,1517.00
2024-04-16T09:15:40.110Z,1513.00
2024-04-16T09:16:40.238Z,1506.00
2024-04-16T09:17:40.148Z,1500.00
2024-04-16T09:18:40.233Z,1501.00
2024-04-16T09:19:40.217Z,1498.00
2024-04-16T09:20:40.149Z,1494.00
2024-04-16T09:21:40.117Z,1498.00
2024-04-16T09:22:40.210Z,1498.00
2024-04-16T09:23:40.216Z,1484.00
2024-04-16T09:24:40.137Z,1488.00
2024-04-16T09:25:40.351Z,1486.00
2024-04-16T09:26:40.135Z,1487.00
2024-04-16T09:27:40.123Z,1479.00
2024-04-16T09:28:40.170Z,1482.00
2024-04-16T09:29:40.132Z,1473.00
2024-04-16T09:30:40.139Z,1475.00
2024-04-16T09:31:40.215Z,1475.00
2024-04-16T09:32:40.190Z,1468.00
2024-04-16T09:33:40.212Z,1455.00
2024-04-16T09:34:40.171Z,1426.00
2024-04-16T09:35:40.204Z,1413.00
2024-04-16T09:36:40.195Z,1353.00
2024-04-16T09:37:42.459Z,1280.00
2024-04-16T09:38:40.202Z,1194.00
2024-04-16T09:39:40.160Z,1113.00
2024-04-16T09:40:40.317Z,1062.00
2024-04-16T09:41:40.281Z,972.00
2024-04-16T09:42:40.259Z,894.00
2024-04-16T09:43:40.229Z,851.00
2024-04-16T09:44:40.171Z,805.00
2024-04-16T09:45:40.260Z,744.00
2024-04-16T09:46:40.324Z,710.00
2024-04-16T09:47:40.276Z,669.00
2024-04-16T09:48:40.189Z,661.00
2024-04-16T09:49:50.432Z,652.00
2024-04-16T09:50:49.991Z,652.00
2024-04-16T09:51:41.190Z,646.00
2024-04-16T09:52:40.275Z,635.00
2024-04-16T09:53:40.168Z,640.00
2024-04-16T09:54:40.214Z,650.00
2024-04-16T09:55:40.269Z,655.00
2024-04-16T09:56:40.193Z,654.00
2024-04-16T09:57:40.182Z,639.00
2024-04-16T09:58:40.223Z,626.00
2024-04-16T09:59:40.224Z,608.00
2024-04-16T10:00:40.273Z,599.00
2024-04-16T10:01:40.228Z,599.00
2024-04-16T10:02:40.243Z,600.00
2024-04-16T10:03:40.212Z,601.00
2024-04-16T10:04:40.236Z,603.00
2024-04-16T10:05:40.263Z,603.00
2024-04-16T10:06:40.261Z,600.00
2024-04-16T10:07:40.307Z,600.00
2024-04-16T10:08:40.241Z,600.00
2024-04-16T10:09:40.231Z,599.00
2024-04-16T10:10:40.304Z,602.00
2024-04-16T10:11:40.309Z,601.00
2024-04-16T10:12:40.209Z,600.00
2024-04-16T10:13:40.337Z,600.00
2024-04-16T10:14:40.216Z,600.00
2024-04-16T10:15:40.212Z,600.00
2024-04-16T10:16:40.282Z,602.00
2024-04-16T10:17:40.283Z,601.00
2024-04-16T10:18:40.212Z,600.00
2024-04-16T10:19:40.840Z,595.00
2024-04-16T10:20:40.395Z,600.00
2024-04-16T10:21:40.425Z,601.00
2024-04-16T10:22:48.275Z,600.00
2024-04-16T10:23:41.524Z,597.00
2024-04-16T10:24:40.476Z,593.00
2024-04-16T10:25:40.517Z,601.00
2024-04-16T10:26:40.467Z,598.00
2024-04-16T10:27:40.480Z,592.00
2024-04-16T10:28:40.518Z,600.00
2024-04-16T10:29:40.475Z,601.00
2024-04-16T10:30:40.496Z,603.00
2024-04-16T10:31:40.559Z,603.00
2024-04-16T10:32:40.611Z,606.00
2024-04-16T10:33:40.778Z,608.00
2024-04-16T10:34:40.740Z,616.00
2024-04-16T10:35:40.708Z,624.00
2024-04-16T10:36:40.799Z,617.00
2024-04-16T10:37:40.929Z,625.00
2024-04-16T10:38:40.896Z,621.00
2024-04-16T10:39:40.963Z,615.00
2024-04-16T10:40:41.110Z,618.00
2024-04-16T10:41:41.093Z,616.00
2024-04-16T10:42:41.143Z,614.00
2024-04-16T10:43:41.312Z,613.00
2024-04-16T10:44:41.288Z,616.00
2024-04-16T10:45:41.428Z,622.00
2024-04-16T10:46:41.600Z,626.00
2024-04-16T10:47:42.300Z,616.00
2024-04-16T10:48:41.565Z,616.00
2024-04-16T10:49:44.423Z,617.00
2024-04-16T10:50:41.627Z,608.00
2024-04-16T10:51:41.762Z,615.00
2024-04-16T10:52:41.770Z,608.00
2024-04-16T10:53:41.685Z,608.00
2024-04-16T10:54:41.620Z,606.00
2024-04-16T10:55:41.653Z,599.00
2024-04-16T10:56:41.631Z,602.00
2024-04-16T10:57:41.625Z,604.00
2024-04-16T10:58:41.669Z,605.00
2024-04-16T10:59:48.838Z,600.00
2024-04-16T11:00:42.854Z,600.00
2024-04-16T11:01:41.816Z,596.00
2024-04-16T11:02:41.870Z,601.00
2024-04-16T11:03:41.831Z,590.00
2024-04-16T11:04:41.782Z,584.00
2024-04-16T11:05:41.778Z,600.00
2024-04-16T11:06:41.706Z,606.00
2024-04-16T11:07:41.710Z,607.00
2024-04-16T11:08:41.659Z,615.00
2024-04-16T11:09:42.337Z,622.00
2024-04-16T11:10:41.880Z,627.00
2024-04-16T11:11:41.940Z,630.00
2024-04-16T11:12:41.919Z,628.00
2024-04-16T11:13:42.028Z,623.00
2024-04-16T11:14:42.121Z,617.00
2024-04-16T11:15:42.166Z,609.00
2024-04-16T11:16:42.439Z,611.00
2024-04-16T11:17:42.375Z,617.00
2024-04-16T11:18:42.333Z,626.00
2024-04-16T11:19:42.504Z,637.00
2024-04-16T11:20:42.462Z,648.00
2024-04-16T11:21:42.519Z,659.00
2024-04-16T11:22:42.684Z,676.00
2024-04-16T11:23:42.615Z,685.00
2024-04-16T11:24:42.675Z,706.00
2024-04-16T11:25:42.859Z,713.00
2024-04-16T11:26:42.813Z,732.00
2024-04-16T11:27:42.891Z,746.00
2024-04-16T11:28:42.983Z,762.00
2024-04-16T11:29:42.981Z,778.00
2024-04-16T11:30:43.090Z,789.00
2024-04-16T11:31:43.312Z,799.00
2024-04-16T11:32:43.295Z,803.00
2024-04-16T11:33:43.315Z,815.00
2024-04-16T11:34:43.418Z,827.00
2024-04-16T11:35:43.361Z,844.00
2024-04-16T11:36:43.408Z,860.00
2024-04-16T11:37:43.540Z,872.00
2024-04-16T11:38:43.754Z,875.00
2024-04-16T11:39:43.616Z,899.00
2024-04-16T11:40:48.147Z,893.00
2024-04-16T11:41:44.682Z,894.00
2024-04-16T11:42:43.680Z,896.00
2024-04-16T11:43:44.380Z,902.00
2024-04-16T11:44:43.711Z,915.00
2024-04-16T11:45:43.730Z,930.00
2024-04-16T11:46:43.818Z,933.00
2024-04-16T11:47:43.816Z,939.00
2024-04-16T11:48:43.827Z,941.00
2024-04-16T11:49:43.737Z,946.00
2024-04-16T11:50:43.773Z,951.00
2024-04-16T11:51:43.902Z,955.00
2024-04-16T11:52:44.073Z,959.00
2024-04-16T11:53:43.974Z,957.00
2024-04-16T11:54:44.035Z,958.00
2024-04-16T11:55:44.134Z,946.00
2024-04-16T11:56:44.202Z,924.00
2024-04-16T11:57:44.266Z,909.00
2024-04-16T11:58:44.799Z,886.00
2024-04-16T11:59:44.441Z,863.00
2024-04-16T12:00:44.541Z,841.00
2024-04-16T12:01:44.622Z,810.00
2024-04-16T12:02:44.630Z,798.00
2024-04-16T12:03:44.763Z,775.00
2024-04-16T12:04:44.828Z,768.00
2024-04-16T12:05:44.834Z,778.00
2024-04-16T12:06:44.886Z,797.00
2024-04-16T12:07:44.946Z,822.00
2024-04-16T12:08:44.982Z,848.00
2024-04-16T12:09:45.040Z,862.00
2024-04-16T12:10:45.159Z,876.00
2024-04-16T12:11:45.260Z,898.00
2024-04-16T12:12:45.186Z,909.00
2024-04-16T12:13:45.363Z,915.00
2024-04-16T12:14:45.312Z,925.00
2024-04-16T12:15:45.386Z,934.00
2024-04-16T12:16:45.614Z,947.00
2024-04-16T12:17:45.551Z,962.00
2024-04-16T12:18:45.611Z,968.00
2024-04-16T12:19:45.742Z,984.00
2024-04-16T12:20:45.685Z,1001.00
2024-04-16T12:21:45.819Z,999.00
2024-04-16T12:22:45.893Z,1019.00
2024-04-16T12:23:45.891Z,1034.00